METAR Data
IDs: Format: Raw Decoded Include TAF

Data at: 1208 UTC 26 Feb 2021

EKVD 261150Z 29014KT 250V310 9999 SCT010 09/04 Q1028